sensor_id;sensor_type;location;lat;lon;timestamp;temperature;humidity
36444;DHT22;24692;45.642;13.806;2024-01-27T00:00:43;7.50;99.90
36444;DHT22;24692;45.642;13.806;2024-01-27T00:03:09;7.50;99.90
36444;DHT22;24692;45.642;13.806;2024-01-27T00:05:35;7.40;99.90
36444;DHT22;24692;45.642;13.806;2024-01-27T00:08:00;7.40;99.90
36444;DHT22;24692;45.642;13.806;2024-01-27T00:10:26;7.30;99.90
36444;DHT22;24692;45.642;13.806;2024-01-27T00:12:52;7.40;99.90
36444;DHT22;24692;45.642;13.806;2024-01-27T00:15:17;7.40;99.90
36444;DHT22;24692;45.642;13.806;2024-01-27T00:17:43;7.30;99.90
36444;DHT22;24692;45.642;13.806;2024-01-27T00:20:09;7.10;99.90
36444;DHT22;24692;45.642;13.806;2024-01-27T00:22:35;7.10;99.90
36444;DHT22;24692;45.642;13.806;2024-01-27T00:25:00;7.00;99.90
36444;DHT22;24692;45.642;13.806;2024-01-27T00:27:26;7.00;99.90
36444;DHT22;24692;45.642;13.806;2024-01-27T00:29:52;7.00;99.90
36444;DHT22;24692;45.642;13.806;2024-01-27T00:32:17;7.00;99.90
36444;DHT22;24692;45.642;13.806;2024-01-27T00:34:43;7.10;99.90
36444;DHT22;24692;45.642;13.806;2024-01-27T00:37:09;7.00;99.90
36444;DHT22;24692;45.642;13.806;2024-01-27T00:39:34;7.00;99.90
36444;DHT22;24692;45.642;13.806;2024-01-27T00:42:00;7.00;99.90
36444;DHT22;24692;45.642;13.806;2024-01-27T00:44:26;7.00;99.90
36444;DHT22;24692;45.642;13.806;2024-01-27T00:46:51;7.00;99.90
36444;DHT22;24692;45.642;13.806;2024-01-27T00:49:17;7.10;99.90
36444;DHT22;24692;45.642;13.806;2024-01-27T00:51:43;7.10;99.90
36444;DHT22;24692;45.642;13.806;2024-01-27T00:54:10;7.10;99.90
36444;DHT22;24692;45.642;13.806;2024-01-27T00:56:39;7.10;99.90
36444;DHT22;24692;45.642;13.806;2024-01-27T00:59:04;7.00;99.90
36444;DHT22;24692;45.642;13.806;2024-01-27T01:01:30;6.90;99.90
36444;DHT22;24692;45.642;13.806;2024-01-27T01:03:55;7.00;99.90
36444;DHT22;24692;45.642;13.806;2024-01-27T01:06:22;6.90;99.90
36444;DHT22;24692;45.642;13.806;2024-01-27T01:08:48;6.90;99.90
36444;DHT22;24692;45.642;13.806;2024-01-27T01:11:14;6.90;99.90
36444;DHT22;24692;45.642;13.806;2024-01-27T01:13:40;6.80;99.90
36444;DHT22;24692;45.642;13.806;2024-01-27T01:16:06;6.80;99.90
36444;DHT22;24692;45.642;13.806;2024-01-27T01:18:33;6.90;99.90
36444;DHT22;24692;45.642;13.806;2024-01-27T01:20:59;6.90;99.90
36444;DHT22;24692;45.642;13.806;2024-01-27T01:23:24;6.90;99.90
36444;DHT22;24692;45.642;13.806;2024-01-27T01:25:50;6.90;99.90
36444;DHT22;24692;45.642;13.806;2024-01-27T01:28:15;6.80;99.90
36444;DHT22;24692;45.642;13.806;2024-01-27T01:30:41;6.80;99.90
36444;DHT22;24692;45.642;13.806;2024-01-27T01:33:07;6.80;99.90
36444;DHT22;24692;45.642;13.806;2024-01-27T01:35:33;6.80;99.90
36444;DHT22;24692;45.642;13.806;2024-01-27T01:37:58;6.70;99.90
36444;DHT22;24692;45.642;13.806;2024-01-27T01:40:24;6.60;99.90
36444;DHT22;24692;45.642;13.806;2024-01-27T01:42:52;6.60;99.90
36444;DHT22;24692;45.642;13.806;2024-01-27T01:45:18;6.60;99.90
36444;DHT22;24692;45.642;13.806;2024-01-27T01:47:44;6.60;99.90
36444;DHT22;24692;45.642;13.806;2024-01-27T01:50:10;6.70;99.90
36444;DHT22;24692;45.642;13.806;2024-01-27T01:52:37;6.60;99.90
36444;DHT22;24692;45.642;13.806;2024-01-27T01:55:04;6.60;99.90
36444;DHT22;24692;45.642;13.806;2024-01-27T01:57:30;6.60;99.90
36444;DHT22;24692;45.642;13.806;2024-01-27T01:59:56;6.60;99.90
36444;DHT22;24692;45.642;13.806;2024-01-27T02:02:22;6.60;99.90
36444;DHT22;24692;45.642;13.806;2024-01-27T02:04:47;6.60;99.90
36444;DHT22;24692;45.642;13.806;2024-01-27T02:07:13;6.60;99.90
36444;DHT22;24692;45.642;13.806;2024-01-27T02:09:39;6.60;99.90
36444;DHT22;24692;45.642;13.806;2024-01-27T02:12:05;6.60;99.90
36444;DHT22;24692;45.642;13.806;2024-01-27T02:14:31;6.60;99.90
36444;DHT22;24692;45.642;13.806;2024-01-27T02:16:57;6.50;99.90
36444;DHT22;24692;45.642;13.806;2024-01-27T02:19:23;6.60;99.90
36444;DHT22;24692;45.642;13.806;2024-01-27T02:21:49;6.60;99.90
36444;DHT22;24692;45.642;13.806;2024-01-27T02:24:15;6.50;99.90
36444;DHT22;24692;45.642;13.806;2024-01-27T02:26:41;6.40;99.90
36444;DHT22;24692;45.642;13.806;2024-01-27T02:29:07;6.40;99.90
36444;DHT22;24692;45.642;13.806;2024-01-27T02:31:32;6.30;99.90
36444;DHT22;24692;45.642;13.806;2024-01-27T02:33:58;6.30;99.90
36444;DHT22;24692;45.642;13.806;2024-01-27T02:36:24;6.30;99.90
36444;DHT22;24692;45.642;13.806;2024-01-27T02:38:49;6.10;99.90
36444;DHT22;24692;45.642;13.806;2024-01-27T02:41:15;6.00;99.90
36444;DHT22;24692;45.642;13.806;2024-01-27T02:43:41;6.00;99.90
36444;DHT22;24692;45.642;13.806;2024-01-27T02:46:12;6.00;99.90
36444;DHT22;24692;45.642;13.806;2024-01-27T02:48:41;6.10;99.90
36444;DHT22;24692;45.642;13.806;2024-01-27T02:51:08;6.10;99.90
36444;DHT22;24692;45.642;13.806;2024-01-27T02:53:34;6.10;99.90
36444;DHT22;24692;45.642;13.806;2024-01-27T02:55:59;6.30;99.90
36444;DHT22;24692;45.642;13.806;2024-01-27T02:58:25;6.30;99.90
36444;DHT22;24692;45.642;13.806;2024-01-27T03:00:51;6.30;99.90
36444;DHT22;24692;45.642;13.806;2024-01-27T03:03:16;6.30;99.90
36444;DHT22;24692;45.642;13.806;2024-01-27T03:05:42;6.30;99.90
36444;DHT22;24692;45.642;13.806;2024-01-27T03:08:08;6.30;99.90
36444;DHT22;24692;45.642;13.806;2024-01-27T03:10:33;6.30;99.90
36444;DHT22;24692;45.642;13.806;2024-01-27T03:12:59;6.40;99.90
36444;DHT22;24692;45.642;13.806;2024-01-27T03:15:25;6.40;99.90
36444;DHT22;24692;45.642;13.806;2024-01-27T03:17:50;6.30;99.90
36444;DHT22;24692;45.642;13.806;2024-01-27T03:20:16;6.30;99.90
36444;DHT22;24692;45.642;13.806;2024-01-27T03:22:42;6.20;99.90
36444;DHT22;24692;45.642;13.806;2024-01-27T03:25:09;6.00;99.90
36444;DHT22;24692;45.642;13.806;2024-01-27T03:27:36;6.00;99.90
36444;DHT22;24692;45.642;13.806;2024-01-27T03:30:02;5.90;99.90
36444;DHT22;24692;45.642;13.806;2024-01-27T03:32:29;5.80;99.90
36444;DHT22;24692;45.642;13.806;2024-01-27T03:34:58;5.90;99.90
36444;DHT22;24692;45.642;13.806;2024-01-27T03:37:24;5.90;99.90
36444;DHT22;24692;45.642;13.806;2024-01-27T03:39:49;5.90;99.90
36444;DHT22;24692;45.642;13.806;2024-01-27T03:42:15;5.90;99.90
36444;DHT22;24692;45.642;13.806;2024-01-27T03:44:41;5.90;99.90
36444;DHT22;24692;45.642;13.806;2024-01-27T03:47:06;6.00;99.90
36444;DHT22;24692;45.642;13.806;2024-01-27T03:49:32;6.00;99.90
36444;DHT22;24692;45.642;13.806;2024-01-27T03:51:57;5.90;99.90
36444;DHT22;24692;45.642;13.806;2024-01-27T03:54:23;5.90;99.90
36444;DHT22;24692;45.642;13.806;2024-01-27T03:56:49;5.80;99.90
36444;DHT22;24692;45.642;13.806;2024-01-27T03:59:14;5.90;99.90
36444;DHT22;24692;45.642;13.806;2024-01-27T04:01:40;5.90;99.90
36444;DHT22;24692;45.642;13.806;2024-01-27T04:04:06;5.80;99.90
36444;DHT22;24692;45.642;13.806;2024-01-27T04:06:41;5.70;99.90
36444;DHT22;24692;45.642;13.806;2024-01-27T04:09:07;5.60;99.90
36444;DHT22;24692;45.642;13.806;2024-01-27T04:11:34;5.50;99.90
36444;DHT22;24692;45.642;13.806;2024-01-27T04:14:00;5.50;99.90
36444;DHT22;24692;45.642;13.806;2024-01-27T04:16:27;5.50;99.90
36444;DHT22;24692;45.642;13.806;2024-01-27T04:18:53;5.40;99.90
36444;DHT22;24692;45.642;13.806;2024-01-27T04:21:18;5.50;99.90
36444;DHT22;24692;45.642;13.806;2024-01-27T04:23:44;5.40;99.90
36444;DHT22;24692;45.642;13.806;2024-01-27T04:26:10;5.40;99.90
36444;DHT22;24692;45.642;13.806;2024-01-27T04:28:36;5.50;99.90
36444;DHT22;24692;45.642;13.806;2024-01-27T04:31:02;5.50;99.90
36444;DHT22;24692;45.642;13.806;2024-01-27T04:33:28;5.60;99.90
36444;DHT22;24692;45.642;13.806;2024-01-27T04:35:53;5.60;99.90
36444;DHT22;24692;45.642;13.806;2024-01-27T04:38:19;5.60;99.90
36444;DHT22;24692;45.642;13.806;2024-01-27T04:40:45;5.50;99.90
36444;DHT22;24692;45.642;13.806;2024-01-27T04:43:17;5.50;99.90
36444;DHT22;24692;45.642;13.806;2024-01-27T04:45:43;5.50;99.90
36444;DHT22;24692;45.642;13.806;2024-01-27T04:48:09;5.60;99.90
36444;DHT22;24692;45.642;13.806;2024-01-27T04:50:35;5.60;99.90
36444;DHT22;24692;45.642;13.806;2024-01-27T04:53:01;5.50;99.90
36444;DHT22;24692;45.642;13.806;2024-01-27T04:55:27;5.40;99.90
36444;DHT22;24692;45.642;13.806;2024-01-27T04:57:53;5.40;99.90
36444;DHT22;24692;45.642;13.806;2024-01-27T05:00:20;5.50;99.90
36444;DHT22;24692;45.642;13.806;2024-01-27T05:02:45;5.50;99.90
36444;DHT22;24692;45.642;13.806;2024-01-27T05:05:11;5.50;99.90
36444;DHT22;24692;45.642;13.806;2024-01-27T05:07:38;5.50;99.90
36444;DHT22;24692;45.642;13.806;2024-01-27T05:10:04;5.50;99.90
36444;DHT22;24692;45.642;13.806;2024-01-27T05:12:30;5.50;99.90
36444;DHT22;24692;45.642;13.806;2024-01-27T05:14:56;5.50;99.90
36444;DHT22;24692;45.642;13.806;2024-01-27T05:17:21;5.50;99.90
36444;DHT22;24692;45.642;13.806;2024-01-27T05:19:49;5.40;99.90
36444;DHT22;24692;45.642;13.806;2024-01-27T05:22:14;5.30;99.90
36444;DHT22;24692;45.642;13.806;2024-01-27T05:24:40;5.30;99.90
36444;DHT22;24692;45.642;13.806;2024-01-27T05:27:06;5.60;99.90
36444;DHT22;24692;45.642;13.806;2024-01-27T05:29:31;5.70;99.90
36444;DHT22;24692;45.642;13.806;2024-01-27T05:31:57;5.70;99.90
36444;DHT22;24692;45.642;13.806;2024-01-27T05:34:23;5.70;99.90
36444;DHT22;24692;45.642;13.806;2024-01-27T05:36:48;5.70;99.90
36444;DHT22;24692;45.642;13.806;2024-01-27T05:39:14;5.70;99.90
36444;DHT22;24692;45.642;13.806;2024-01-27T05:41:40;5.70;99.90
36444;DHT22;24692;45.642;13.806;2024-01-27T05:44:06;5.70;99.90
36444;DHT22;24692;45.642;13.806;2024-01-27T05:46:31;5.60;99.90
36444;DHT22;24692;45.642;13.806;2024-01-27T05:48:57;5.60;99.90
36444;DHT22;24692;45.642;13.806;2024-01-27T05:51:28;5.60;99.90
36444;DHT22;24692;45.642;13.806;2024-01-27T05:53:54;5.60;99.90
36444;DHT22;24692;45.642;13.806;2024-01-27T05:56:19;5.50;99.90
36444;DHT22;24692;45.642;13.806;2024-01-27T05:58:48;5.50;99.90
36444;DHT22;24692;45.642;13.806;2024-01-27T06:01:14;5.40;99.90
36444;DHT22;24692;45.642;13.806;2024-01-27T06:03:43;5.40;99.90
36444;DHT22;24692;45.642;13.806;2024-01-27T06:06:09;5.30;99.90
36444;DHT22;24692;45.642;13.806;2024-01-27T06:08:35;5.30;99.90
36444;DHT22;24692;45.642;13.806;2024-01-27T06:11:01;5.30;99.90
36444;DHT22;24692;45.642;13.806;2024-01-27T06:13:28;5.30;99.90
36444;DHT22;24692;45.642;13.806;2024-01-27T06:15:54;5.20;99.90
36444;DHT22;24692;45.642;13.806;2024-01-27T06:18:20;5.30;99.90
36444;DHT22;24692;45.642;13.806;2024-01-27T06:20:46;5.20;99.90
36444;DHT22;24692;45.642;13.806;2024-01-27T06:23:12;5.20;99.90
36444;DHT22;24692;45.642;13.806;2024-01-27T06:25:37;5.20;99.90
36444;DHT22;24692;45.642;13.806;2024-01-27T06:28:03;5.30;99.90
36444;DHT22;24692;45.642;13.806;2024-01-27T06:30:29;5.40;99.90
36444;DHT22;24692;45.642;13.806;2024-01-27T06:32:54;5.40;99.90
36444;DHT22;24692;45.642;13.806;2024-01-27T06:35:20;5.30;99.90
36444;DHT22;24692;45.642;13.806;2024-01-27T06:37:46;5.30;99.90
36444;DHT22;24692;45.642;13.806;2024-01-27T06:40:12;5.30;99.90
36444;DHT22;24692;45.642;13.806;2024-01-27T06:42:38;5.30;99.90
36444;DHT22;24692;45.642;13.806;2024-01-27T06:45:04;5.30;99.90
36444;DHT22;24692;45.642;13.806;2024-01-27T06:47:30;5.40;99.90
36444;DHT22;24692;45.642;13.806;2024-01-27T06:49:56;5.40;99.90
36444;DHT22;24692;45.642;13.806;2024-01-27T06:52:21;5.50;99.90
36444;DHT22;24692;45.642;13.806;2024-01-27T06:54:47;5.60;99.90
36444;DHT22;24692;45.642;13.806;2024-01-27T06:57:23;5.60;99.90
36444;DHT22;24692;45.642;13.806;2024-01-27T06:59:50;5.70;99.90
36444;DHT22;24692;45.642;13.806;2024-01-27T07:04:50;5.80;99.90
36444;DHT22;24692;45.642;13.806;2024-01-27T07:07:16;5.70;99.90
36444;DHT22;24692;45.642;13.806;2024-01-27T07:09:41;5.70;99.90
36444;DHT22;24692;45.642;13.806;2024-01-27T07:12:07;5.70;99.90
36444;DHT22;24692;45.642;13.806;2024-01-27T07:14:34;5.70;99.90
36444;DHT22;24692;45.642;13.806;2024-01-27T07:17:00;5.70;99.90
36444;DHT22;24692;45.642;13.806;2024-01-27T07:19:26;5.90;99.90
36444;DHT22;24692;45.642;13.806;2024-01-27T07:21:52;5.90;99.90
36444;DHT22;24692;45.642;13.806;2024-01-27T07:24:17;5.90;99.90
36444;DHT22;24692;45.642;13.806;2024-01-27T07:26:43;6.00;99.90
36444;DHT22;24692;45.642;13.806;2024-01-27T07:29:09;6.40;99.90
36444;DHT22;24692;45.642;13.806;2024-01-27T07:31:34;7.50;99.90
36444;DHT22;24692;45.642;13.806;2024-01-27T07:34:00;8.90;99.90
36444;DHT22;24692;45.642;13.806;2024-01-27T07:36:26;10.20;99.90
36444;DHT22;24692;45.642;13.806;2024-01-27T07:38:56;11.20;99.90
36444;DHT22;24692;45.642;13.806;2024-01-27T07:41:22;12.20;99.90
36444;DHT22;24692;45.642;13.806;2024-01-27T07:43:47;13.20;99.90
36444;DHT22;24692;45.642;13.806;2024-01-27T07:46:13;14.20;99.90
36444;DHT22;24692;45.642;13.806;2024-01-27T07:48:39;14.70;99.90
36444;DHT22;24692;45.642;13.806;2024-01-27T07:51:04;15.60;99.90
36444;DHT22;24692;45.642;13.806;2024-01-27T07:53:30;15.80;99.90
36444;DHT22;24692;45.642;13.806;2024-01-27T07:55:56;15.60;99.90
36444;DHT22;24692;45.642;13.806;2024-01-27T07:58:21;15.70;99.90
36444;DHT22;24692;45.642;13.806;2024-01-27T08:00:47;15.70;99.90
36444;DHT22;24692;45.642;13.806;2024-01-27T08:03:13;16.70;99.90
36444;DHT22;24692;45.642;13.806;2024-01-27T08:05:38;17.60;99.90
36444;DHT22;24692;45.642;13.806;2024-01-27T08:08:04;17.30;99.90
36444;DHT22;24692;45.642;13.806;2024-01-27T08:10:30;17.20;99.90
36444;DHT22;24692;45.642;13.806;2024-01-27T08:12:55;17.70;99.90
36444;DHT22;24692;45.642;13.806;2024-01-27T08:15:21;18.70;99.90
36444;DHT22;24692;45.642;13.806;2024-01-27T08:17:47;19.70;99.90
36444;DHT22;24692;45.642;13.806;2024-01-27T08:20:13;19.00;99.90
36444;DHT22;24692;45.642;13.806;2024-01-27T08:22:38;19.00;99.90
36444;DHT22;24692;45.642;13.806;2024-01-27T08:25:04;19.80;99.90
36444;DHT22;24692;45.642;13.806;2024-01-27T08:27:30;20.00;99.90
36444;DHT22;24692;45.642;13.806;2024-01-27T08:29:56;19.60;99.90
36444;DHT22;24692;45.642;13.806;2024-01-27T08:32:21;20.00;99.90
36444;DHT22;24692;45.642;13.806;2024-01-27T08:34:47;20.30;99.90
36444;DHT22;24692;45.642;13.806;2024-01-27T08:37:18;20.80;99.90
36444;DHT22;24692;45.642;13.806;2024-01-27T08:39:44;21.60;99.90
36444;DHT22;24692;45.642;13.806;2024-01-27T08:42:11;21.30;99.90
36444;DHT22;24692;45.642;13.806;2024-01-27T08:44:37;21.60;99.90
36444;DHT22;24692;45.642;13.806;2024-01-27T08:47:03;21.80;99.90
36444;DHT22;24692;45.642;13.806;2024-01-27T08:49:29;21.20;99.90
36444;DHT22;24692;45.642;13.806;2024-01-27T08:51:54;21.10;99.90
36444;DHT22;24692;45.642;13.806;2024-01-27T08:54:21;21.30;99.90
36444;DHT22;24692;45.642;13.806;2024-01-27T08:56:47;21.80;99.90
36444;DHT22;24692;45.642;13.806;2024-01-27T08:59:13;21.60;99.90
36444;DHT22;24692;45.642;13.806;2024-01-27T09:01:38;21.60;99.90
36444;DHT22;24692;45.642;13.806;2024-01-27T09:04:04;21.70;99.90
36444;DHT22;24692;45.642;13.806;2024-01-27T09:06:29;22.30;99.90
36444;DHT22;24692;45.642;13.806;2024-01-27T09:08:55;22.30;99.90
36444;DHT22;24692;45.642;13.806;2024-01-27T09:11:21;22.60;99.90
36444;DHT22;24692;45.642;13.806;2024-01-27T09:13:52;22.60;99.90
36444;DHT22;24692;45.642;13.806;2024-01-27T09:16:18;22.40;99.90
36444;DHT22;24692;45.642;13.806;2024-01-27T09:18:45;21.70;99.90
36444;DHT22;24692;45.642;13.806;2024-01-27T09:21:11;21.80;99.90
36444;DHT22;24692;45.642;13.806;2024-01-27T09:23:37;22.20;99.90
36444;DHT22;24692;45.642;13.806;2024-01-27T09:26:03;22.80;99.90
36444;DHT22;24692;45.642;13.806;2024-01-27T09:28:29;23.10;99.90
36444;DHT22;24692;45.642;13.806;2024-01-27T09:30:55;22.40;99.90
36444;DHT22;24692;45.642;13.806;2024-01-27T09:33:20;22.70;99.90
36444;DHT22;24692;45.642;13.806;2024-01-27T09:35:49;22.70;99.90
36444;DHT22;24692;45.642;13.806;2024-01-27T09:38:15;23.00;99.90
36444;DHT22;24692;45.642;13.806;2024-01-27T09:40:41;22.70;99.90
36444;DHT22;24692;45.642;13.806;2024-01-27T09:43:11;23.00;99.90
36444;DHT22;24692;45.642;13.806;2024-01-27T09:45:38;23.30;99.90
36444;DHT22;24692;45.642;13.806;2024-01-27T09:48:05;23.20;99.90
36444;DHT22;24692;45.642;13.806;2024-01-27T09:50:34;23.50;99.90
36444;DHT22;24692;45.642;13.806;2024-01-27T09:53:00;23.60;99.90
36444;DHT22;24692;45.642;13.806;2024-01-27T09:55:26;23.80;99.90
36444;DHT22;24692;45.642;13.806;2024-01-27T09:57:52;23.20;99.90
36444;DHT22;24692;45.642;13.806;2024-01-27T10:00:19;23.00;99.90
36444;DHT22;24692;45.642;13.806;2024-01-27T10:02:46;22.90;99.90
36444;DHT22;24692;45.642;13.806;2024-01-27T10:05:14;22.70;99.90
36444;DHT22;24692;45.642;13.806;2024-01-27T10:07:41;22.80;99.90
36444;DHT22;24692;45.642;13.806;2024-01-27T10:10:07;23.20;99.90
36444;DHT22;24692;45.642;13.806;2024-01-27T10:12:36;23.30;99.90
36444;DHT22;24692;45.642;13.806;2024-01-27T10:15:04;23.20;99.90
36444;DHT22;24692;45.642;13.806;2024-01-27T10:17:30;23.20;99.90
36444;DHT22;24692;45.642;13.806;2024-01-27T10:20:04;23.50;99.90
36444;DHT22;24692;45.642;13.806;2024-01-27T10:22:42;23.60;99.90
36444;DHT22;24692;45.642;13.806;2024-01-27T10:25:10;23.80;99.90
36444;DHT22;24692;45.642;13.806;2024-01-27T10:27:36;23.90;99.90
36444;DHT22;24692;45.642;13.806;2024-01-27T10:30:02;24.10;99.90
36444;DHT22;24692;45.642;13.806;2024-01-27T10:32:28;24.00;99.90
36444;DHT22;24692;45.642;13.806;2024-01-27T10:35:07;23.90;99.90
36444;DHT22;24692;45.642;13.806;2024-01-27T10:37:37;23.70;99.90
36444;DHT22;24692;45.642;13.806;2024-01-27T10:40:06;23.40;99.90
36444;DHT22;24692;45.642;13.806;2024-01-27T10:42:36;23.50;99.90
36444;DHT22;24692;45.642;13.806;2024-01-27T10:45:03;23.80;99.90
36444;DHT22;24692;45.642;13.806;2024-01-27T10:47:30;23.50;99.90
36444;DHT22;24692;45.642;13.806;2024-01-27T10:49:58;23.50;99.90
36444;DHT22;24692;45.642;13.806;2024-01-27T10:52:24;23.60;99.90
36444;DHT22;24692;45.642;13.806;2024-01-27T10:55:04;24.00;99.90
36444;DHT22;24692;45.642;13.806;2024-01-27T10:57:33;24.10;99.90
36444;DHT22;24692;45.642;13.806;2024-01-27T11:00:01;24.00;99.90
36444;DHT22;24692;45.642;13.806;2024-01-27T11:02:33;23.80;99.90
36444;DHT22;24692;45.642;13.806;2024-01-27T11:05:02;23.30;99.90
36444;DHT22;24692;45.642;13.806;2024-01-27T11:07:32;23.60;99.90
36444;DHT22;24692;45.642;13.806;2024-01-27T11:09:58;24.00;99.90
36444;DHT22;24692;45.642;13.806;2024-01-27T11:12:24;23.90;99.90
36444;DHT22;24692;45.642;13.806;2024-01-27T11:14:52;24.20;99.90
36444;DHT22;24692;45.642;13.806;2024-01-27T11:17:18;24.40;99.90
36444;DHT22;24692;45.642;13.806;2024-01-27T11:19:45;24.60;99.90
36444;DHT22;24692;45.642;13.806;2024-01-27T11:22:26;24.50;99.90
36444;DHT22;24692;45.642;13.806;2024-01-27T11:27:36;24.50;99.90
36444;DHT22;24692;45.642;13.806;2024-01-27T11:30:02;24.60;99.90
36444;DHT22;24692;45.642;13.806;2024-01-27T11:32:28;24.50;99.90
36444;DHT22;24692;45.642;13.806;2024-01-27T11:34:55;24.70;99.90
36444;DHT22;24692;45.642;13.806;2024-01-27T11:37:21;24.70;99.90
36444;DHT22;24692;45.642;13.806;2024-01-27T11:39:51;25.40;99.90
36444;DHT22;24692;45.642;13.806;2024-01-27T11:42:19;25.30;99.60
36444;DHT22;24692;45.642;13.806;2024-01-27T11:44:45;25.50;98.00
36444;DHT22;24692;45.642;13.806;2024-01-27T11:47:15;25.80;96.70
36444;DHT22;24692;45.642;13.806;2024-01-27T11:49:42;26.10;95.00
36444;DHT22;24692;45.642;13.806;2024-01-27T11:52:08;26.20;95.20
36444;DHT22;24692;45.642;13.806;2024-01-27T11:54:34;25.80;90.70
36444;DHT22;24692;45.642;13.806;2024-01-27T11:57:01;25.10;91.60
36444;DHT22;24692;45.642;13.806;2024-01-27T11:59:27;25.10;92.30
36444;DHT22;24692;45.642;13.806;2024-01-27T12:01:52;25.40;91.60
36444;DHT22;24692;45.642;13.806;2024-01-27T12:04:18;25.20;90.80
36444;DHT22;24692;45.642;13.806;2024-01-27T12:06:45;25.40;91.90
36444;DHT22;24692;45.642;13.806;2024-01-27T12:09:11;25.60;91.80
36444;DHT22;24692;45.642;13.806;2024-01-27T12:11:42;25.70;92.20
36444;DHT22;24692;45.642;13.806;2024-01-27T12:14:07;25.60;95.40
36444;DHT22;24692;45.642;13.806;2024-01-27T12:16:33;24.70;96.70
36444;DHT22;24692;45.642;13.806;2024-01-27T12:18:59;24.30;99.90
36444;DHT22;24692;45.642;13.806;2024-01-27T12:21:25;23.60;99.90
36444;DHT22;24692;45.642;13.806;2024-01-27T12:23:55;22.30;99.90
36444;DHT22;24692;45.642;13.806;2024-01-27T12:26:30;20.80;99.90
36444;DHT22;24692;45.642;13.806;2024-01-27T12:28:57;20.70;99.90
36444;DHT22;24692;45.642;13.806;2024-01-27T12:31:24;20.70;99.90
36444;DHT22;24692;45.642;13.806;2024-01-27T12:33:56;20.80;99.90
36444;DHT22;24692;45.642;13.806;2024-01-27T12:36:22;21.30;99.90
36444;DHT22;24692;45.642;13.806;2024-01-27T12:38:59;20.90;99.90
36444;DHT22;24692;45.642;13.806;2024-01-27T12:41:26;20.50;99.90
36444;DHT22;24692;45.642;13.806;2024-01-27T12:43:52;20.30;99.90
36444;DHT22;24692;45.642;13.806;2024-01-27T12:46:18;20.60;99.90
36444;DHT22;24692;45.642;13.806;2024-01-27T12:48:45;20.90;99.90
36444;DHT22;24692;45.642;13.806;2024-01-27T12:51:11;20.60;99.90
36444;DHT22;24692;45.642;13.806;2024-01-27T12:53:41;21.10;99.90
36444;DHT22;24692;45.642;13.806;2024-01-27T12:56:09;21.20;99.90
36444;DHT22;24692;45.642;13.806;2024-01-27T12:58:35;20.80;99.90
36444;DHT22;24692;45.642;13.806;2024-01-27T13:01:01;20.90;99.90
36444;DHT22;24692;45.642;13.806;2024-01-27T13:03:26;21.30;99.90
36444;DHT22;24692;45.642;13.806;2024-01-27T13:05:54;21.60;99.90
36444;DHT22;24692;45.642;13.806;2024-01-27T13:08:20;22.40;99.90
36444;DHT22;24692;45.642;13.806;2024-01-27T13:10:46;23.20;99.90
36444;DHT22;24692;45.642;13.806;2024-01-27T13:13:12;23.80;99.90
36444;DHT22;24692;45.642;13.806;2024-01-27T13:15:38;23.80;97.50
36444;DHT22;24692;45.642;13.806;2024-01-27T13:18:04;24.00;96.30
36444;DHT22;24692;45.642;13.806;2024-01-27T13:20:30;24.40;93.90
36444;DHT22;24692;45.642;13.806;2024-01-27T13:22:56;24.70;92.90
36444;DHT22;24692;45.642;13.806;2024-01-27T13:25:21;24.20;92.00
36444;DHT22;24692;45.642;13.806;2024-01-27T13:27:47;24.50;90.50
36444;DHT22;24692;45.642;13.806;2024-01-27T13:30:13;24.70;91.30
36444;DHT22;24692;45.642;13.806;2024-01-27T13:32:39;24.80;88.20
36444;DHT22;24692;45.642;13.806;2024-01-27T13:35:06;24.60;87.90
36444;DHT22;24692;45.642;13.806;2024-01-27T13:37:33;25.00;89.20
36444;DHT22;24692;45.642;13.806;2024-01-27T13:40:00;25.10;87.80
36444;DHT22;24692;45.642;13.806;2024-01-27T13:42:25;25.30;88.70
36444;DHT22;24692;45.642;13.806;2024-01-27T13:44:51;25.60;85.30
36444;DHT22;24692;45.642;13.806;2024-01-27T13:47:17;23.90;99.20
36444;DHT22;24692;45.642;13.806;2024-01-27T13:49:43;23.30;99.90
36444;DHT22;24692;45.642;13.806;2024-01-27T13:52:09;22.20;99.90
36444;DHT22;24692;45.642;13.806;2024-01-27T13:54:36;22.00;99.90
36444;DHT22;24692;45.642;13.806;2024-01-27T13:57:02;21.30;99.90
36444;DHT22;24692;45.642;13.806;2024-01-27T13:59:28;20.90;99.90
36444;DHT22;24692;45.642;13.806;2024-01-27T14:01:54;20.30;99.90
36444;DHT22;24692;45.642;13.806;2024-01-27T14:04:22;19.40;99.90
36444;DHT22;24692;45.642;13.806;2024-01-27T14:06:52;19.40;99.90
36444;DHT22;24692;45.642;13.806;2024-01-27T14:09:28;19.10;99.90
36444;DHT22;24692;45.642;13.806;2024-01-27T14:11:54;19.80;99.90
36444;DHT22;24692;45.642;13.806;2024-01-27T14:14:19;19.60;99.90
36444;DHT22;24692;45.642;13.806;2024-01-27T14:16:46;19.30;99.90
36444;DHT22;24692;45.642;13.806;2024-01-27T14:19:12;18.90;99.90
36444;DHT22;24692;45.642;13.806;2024-01-27T14:21:38;19.00;99.90
36444;DHT22;24692;45.642;13.806;2024-01-27T14:24:07;19.10;99.90
36444;DHT22;24692;45.642;13.806;2024-01-27T14:26:33;18.70;99.90
36444;DHT22;24692;45.642;13.806;2024-01-27T14:28:59;18.50;99.90
36444;DHT22;24692;45.642;13.806;2024-01-27T14:31:25;18.80;99.90
36444;DHT22;24692;45.642;13.806;2024-01-27T14:33:50;19.30;99.90
36444;DHT22;24692;45.642;13.806;2024-01-27T14:36:17;19.00;99.90
36444;DHT22;24692;45.642;13.806;2024-01-27T14:38:43;18.60;99.90
36444;DHT22;24692;45.642;13.806;2024-01-27T14:41:08;18.40;99.90
36444;DHT22;24692;45.642;13.806;2024-01-27T14:43:37;18.50;99.90
36444;DHT22;24692;45.642;13.806;2024-01-27T14:46:04;18.30;99.90
36444;DHT22;24692;45.642;13.806;2024-01-27T14:48:30;18.80;99.90
36444;DHT22;24692;45.642;13.806;2024-01-27T14:50:56;18.20;99.90
36444;DHT22;24692;45.642;13.806;2024-01-27T14:53:29;17.50;99.90
36444;DHT22;24692;45.642;13.806;2024-01-27T14:55:55;17.40;99.90
36444;DHT22;24692;45.642;13.806;2024-01-27T14:58:21;17.40;99.90
36444;DHT22;24692;45.642;13.806;2024-01-27T15:00:47;17.30;99.90
36444;DHT22;24692;45.642;13.806;2024-01-27T15:03:22;17.60;99.90
36444;DHT22;24692;45.642;13.806;2024-01-27T15:05:49;17.30;99.90
36444;DHT22;24692;45.642;13.806;2024-01-27T15:08:18;17.20;99.90
36444;DHT22;24692;45.642;13.806;2024-01-27T15:10:44;16.60;99.90
36444;DHT22;24692;45.642;13.806;2024-01-27T15:13:11;16.60;99.90
36444;DHT22;24692;45.642;13.806;2024-01-27T15:15:40;16.40;99.90
36444;DHT22;24692;45.642;13.806;2024-01-27T15:18:06;16.30;99.90
36444;DHT22;24692;45.642;13.806;2024-01-27T15:20:33;16.30;99.90
36444;DHT22;24692;45.642;13.806;2024-01-27T15:22:58;15.90;99.90